createdAt,value
2018-11-23T00:01:09.075Z,2.47
2018-11-23T00:03:40.359Z,2.48
2018-11-23T00:06:10.825Z,2.51
2018-11-23T00:08:41.246Z,2.51
2018-11-23T00:11:11.934Z,2.51
2018-11-23T00:13:42.436Z,2.49
2018-11-23T00:16:12.931Z,2.48
2018-11-23T00:18:43.469Z,2.49
2018-11-23T00:21:14.210Z,2.50
2018-11-23T00:23:44.496Z,2.47
2018-11-23T00:26:15.081Z,2.44
2018-11-23T00:28:45.594Z,2.46
2018-11-23T00:31:16.015Z,2.41
2018-11-23T00:33:46.524Z,2.38
2018-11-23T00:36:16.976Z,2.38
2018-11-23T00:38:47.930Z,2.37
2018-11-23T00:41:18.499Z,2.37
2018-11-23T00:43:50.608Z,2.34
2018-11-23T00:46:21.113Z,2.35
2018-11-23T00:48:51.548Z,2.39
2018-11-23T00:51:21.987Z,2.37
2018-11-23T00:53:52.662Z,2.36
2018-11-23T00:56:23.440Z,2.36
2018-11-23T00:58:54.140Z,2.33
2018-11-23T01:01:24.737Z,2.25
2018-11-23T01:03:55.239Z,2.24
2018-11-23T01:06:25.770Z,2.24
2018-11-23T01:08:56.398Z,2.16
2018-11-23T01:11:26.894Z,2.20
2018-11-23T01:13:57.378Z,2.17
2018-11-23T01:16:27.853Z,2.18
2018-11-23T01:18:58.362Z,2.09
2018-11-23T01:21:29.036Z,2.12
2018-11-23T01:23:59.484Z,2.10
2018-11-23T01:26:32.279Z,2.05
2018-11-23T01:29:02.742Z,2.07
2018-11-23T01:31:33.405Z,2.09
2018-11-23T01:34:03.870Z,2.09
2018-11-23T01:36:34.734Z,2.13
2018-11-23T01:39:07.106Z,2.14
2018-11-23T01:41:37.498Z,2.13
2018-11-23T01:44:08.141Z,2.12
2018-11-23T01:46:42.582Z,2.05
2018-11-23T01:49:13.030Z,2.00
2018-11-23T01:51:43.590Z,2.03
2018-11-23T01:54:14.128Z,2.02
2018-11-23T01:56:44.432Z,2.00
2018-11-23T01:59:14.873Z,2.00
2018-11-23T02:01:45.370Z,2.04
2018-11-23T02:04:15.848Z,2.04
2018-11-23T02:06:55.514Z,1.97
2018-11-23T02:09:26.048Z,2.00
2018-11-23T02:11:56.556Z,2.01
2018-11-23T02:14:27.037Z,2.05
2018-11-23T02:17:04.766Z,2.03
2018-11-23T02:19:35.356Z,2.05
2018-11-23T02:22:05.831Z,2.03
2018-11-23T02:24:36.414Z,1.94
2018-11-23T02:27:07.000Z,1.94
2018-11-23T02:29:37.584Z,1.93
2018-11-23T02:32:08.251Z,1.88
2018-11-23T02:34:38.854Z,1.87
2018-11-23T02:37:09.590Z,1.81
2018-11-23T02:39:40.411Z,1.82
2018-11-23T02:42:10.984Z,1.86
2018-11-23T02:44:41.508Z,1.89
2018-11-23T02:47:11.932Z,1.89
2018-11-23T02:49:42.682Z,1.85
2018-11-23T02:52:13.210Z,1.83
2018-11-23T02:54:43.782Z,1.82
2018-11-23T02:57:14.239Z,1.78
2018-11-23T02:59:44.747Z,1.79
2018-11-23T03:02:15.501Z,1.79
2018-11-23T03:04:46.092Z,1.78
2018-11-23T03:07:16.551Z,1.76
2018-11-23T03:09:47.082Z,1.78
2018-11-23T03:12:17.578Z,1.76
2018-11-23T03:14:48.164Z,1.71
2018-11-23T03:17:20.660Z,1.69
2018-11-23T03:19:51.342Z,1.68
2018-11-23T03:22:21.828Z,1.65
2018-11-23T03:24:52.209Z,1.61
2018-11-23T03:27:22.700Z,1.61
2018-11-23T03:29:53.195Z,1.65
2018-11-23T03:32:23.894Z,1.61
2018-11-23T03:34:54.372Z,1.63
2018-11-23T03:37:24.936Z,1.61
2018-11-23T03:39:55.563Z,1.58
2018-11-23T03:42:26.174Z,1.59
2018-11-23T03:44:56.555Z,1.54
2018-11-23T03:47:27.114Z,1.53
2018-11-23T03:49:57.770Z,1.56
2018-11-23T03:52:28.296Z,1.60
2018-11-23T03:54:58.972Z,1.62
2018-11-23T03:57:29.562Z,1.61
2018-11-23T04:00:00.031Z,1.51
2018-11-23T04:02:31.092Z,1.49
2018-11-23T04:05:02.278Z,1.52
2018-11-23T04:07:32.934Z,1.51
2018-11-23T04:10:03.666Z,1.52
2018-11-23T04:12:34.284Z,1.56
2018-11-23T04:15:05.094Z,1.56
2018-11-23T04:17:35.561Z,1.56
2018-11-23T04:20:07.607Z,1.48
2018-11-23T04:22:38.472Z,1.47
2018-11-23T04:25:09.094Z,1.39
2018-11-23T04:27:39.508Z,1.38
2018-11-23T04:30:12.088Z,1.38
2018-11-23T04:32:42.538Z,1.37
2018-11-23T04:35:15.407Z,1.39
2018-11-23T04:37:46.523Z,1.33
2018-11-23T04:40:18.030Z,1.33
2018-11-23T04:42:48.741Z,1.31
2018-11-23T04:45:19.396Z,1.29
2018-11-23T04:47:49.814Z,1.27
2018-11-23T04:50:20.281Z,1.27
2018-11-23T04:52:50.837Z,1.32
2018-11-23T04:55:21.223Z,1.36
2018-11-23T04:57:53.720Z,1.41
2018-11-23T05:00:22.477Z,1.42
2018-11-23T05:02:53.091Z,1.40
2018-11-23T05:05:23.721Z,1.31
2018-11-23T05:07:54.318Z,1.27
2018-11-23T05:10:25.119Z,1.30
2018-11-23T05:12:55.690Z,1.32
2018-11-23T05:15:27.445Z,1.31
2018-11-23T05:17:57.998Z,1.26
2018-11-23T05:20:28.455Z,1.28
2018-11-23T05:22:59.193Z,1.26
2018-11-23T05:25:29.761Z,1.27
2018-11-23T05:28:00.595Z,1.29
2018-11-23T05:30:31.487Z,1.30
2018-11-23T05:33:02.063Z,1.24
2018-11-23T05:35:32.609Z,1.20
2018-11-23T05:38:03.412Z,1.18
2018-11-23T05:40:34.068Z,1.13
2018-11-23T05:43:04.833Z,1.11
2018-11-23T05:45:36.188Z,1.18
2018-11-23T05:48:06.667Z,1.22
2018-11-23T05:50:37.254Z,1.25
2018-11-23T05:53:07.950Z,1.22
2018-11-23T05:55:38.682Z,1.16
2018-11-23T05:58:09.341Z,1.12
2018-11-23T06:00:40.278Z,1.15
2018-11-23T06:03:10.931Z,1.18
2018-11-23T06:05:41.400Z,1.19
2018-11-23T06:08:11.913Z,1.17
2018-11-23T06:10:42.456Z,1.20
2018-11-23T06:13:13.018Z,1.20
2018-11-23T06:15:44.671Z,1.22
2018-11-23T06:18:14.710Z,1.23
2018-11-23T06:20:45.525Z,1.28
2018-11-23T06:23:15.987Z,1.34
2018-11-23T06:25:48.686Z,1.40
2018-11-23T06:28:19.209Z,1.39
2018-11-23T06:30:49.753Z,1.36
2018-11-23T06:33:31.999Z,1.30
2018-11-23T06:36:02.672Z,1.27
2018-11-23T06:38:36.840Z,1.29
2018-11-23T06:41:10.555Z,1.34
2018-11-23T06:43:39.304Z,1.33
2018-11-23T06:46:11.174Z,1.31
2018-11-23T06:48:41.605Z,1.30
2018-11-23T06:51:12.174Z,1.29
2018-11-23T06:53:42.739Z,1.30
2018-11-23T06:56:13.450Z,1.30
2018-11-23T06:58:43.877Z,1.38
2018-11-23T07:01:14.437Z,1.47
2018-11-23T07:03:44.907Z,1.48
2018-11-23T07:06:15.561Z,1.49
2018-11-23T07:08:52.282Z,1.51
2018-11-23T07:11:16.860Z,1.57
2018-11-23T07:13:47.311Z,1.60
2018-11-23T07:16:17.818Z,1.61
2018-11-23T07:18:48.649Z,1.63
2018-11-23T07:21:21.493Z,1.71
2018-11-23T07:23:49.695Z,1.73
2018-11-23T07:26:20.359Z,1.68
2018-11-23T07:28:50.595Z,1.72
2018-11-23T07:31:21.159Z,1.75
2018-11-23T07:33:51.741Z,1.76
2018-11-23T07:36:22.485Z,1.82
2018-11-23T07:38:53.051Z,1.82
2018-11-23T07:41:38.633Z,1.78
2018-11-23T07:44:09.162Z,1.75
2018-11-23T07:46:39.872Z,1.79
2018-11-23T07:49:10.404Z,1.83
2018-11-23T07:51:40.964Z,1.84
2018-11-23T07:54:11.411Z,1.89
2018-11-23T07:56:42.021Z,1.96
2018-11-23T07:59:12.530Z,1.98
2018-11-23T08:01:43.202Z,1.96
2018-11-23T08:04:13.977Z,1.96
2018-11-23T08:06:44.643Z,1.95
2018-11-23T08:09:15.133Z,2.03
2018-11-23T08:11:45.780Z,2.08
2018-11-23T08:14:16.470Z,2.08
2018-11-23T08:16:47.114Z,2.12
2018-11-23T08:19:17.950Z,2.14
2018-11-23T08:21:48.582Z,2.12
2018-11-23T08:24:19.054Z,2.19
2018-11-23T08:26:49.622Z,2.26
2018-11-23T08:29:19.992Z,2.22
2018-11-23T08:31:50.554Z,2.21
2018-11-23T08:34:21.796Z,2.30
2018-11-23T08:36:52.618Z,2.35
2018-11-23T08:39:23.290Z,2.35
2018-11-23T08:41:54.006Z,2.44
2018-11-23T08:44:24.617Z,2.42
2018-11-23T08:46:55.206Z,2.49
2018-11-23T08:49:25.774Z,2.58
2018-11-23T08:51:56.355Z,2.59
2018-11-23T08:54:26.990Z,2.59
2018-11-23T08:56:57.622Z,2.59
2018-11-23T08:59:28.170Z,2.64
2018-11-23T09:01:58.591Z,2.65
2018-11-23T09:04:29.630Z,2.65
2018-11-23T09:06:59.866Z,2.71
2018-11-23T09:09:30.351Z,2.72
2018-11-23T09:12:01.201Z,2.77
2018-11-23T09:14:31.646Z,2.84
2018-11-23T09:17:02.427Z,2.88
2018-11-23T09:19:33.155Z,2.93
2018-11-23T09:22:03.831Z,2.98
2018-11-23T09:24:34.462Z,3.08
2018-11-23T09:27:05.025Z,3.01
2018-11-23T09:29:35.685Z,3.14
2018-11-23T09:32:06.338Z,3.27
2018-11-23T09:34:36.662Z,3.35
2018-11-23T09:37:07.329Z,3.30
2018-11-23T09:39:37.906Z,3.16
2018-11-23T09:42:08.892Z,3.08
2018-11-23T09:44:39.422Z,3.13
2018-11-23T09:47:10.314Z,3.17
2018-11-23T09:49:40.595Z,3.22
2018-11-23T09:52:11.245Z,3.31
2018-11-23T09:54:41.882Z,3.37
2018-11-23T09:57:13.482Z,3.17
2018-11-23T09:59:44.897Z,3.13
2018-11-23T10:02:15.274Z,3.16
2018-11-23T10:04:45.783Z,3.24
2018-11-23T10:07:16.292Z,3.30
2018-11-23T10:09:46.610Z,3.40
2018-11-23T10:12:17.304Z,3.53
2018-11-23T10:14:48.014Z,3.64
2018-11-23T10:17:18.622Z,3.69
2018-11-23T10:19:49.002Z,3.69
2018-11-23T10:22:19.589Z,3.56
2018-11-23T10:24:50.199Z,3.43
2018-11-23T10:27:20.977Z,3.49
2018-11-23T10:29:55.143Z,3.49
2018-11-23T10:32:22.212Z,3.44
2018-11-23T10:34:52.803Z,3.51
2018-11-23T10:37:23.797Z,3.56
2018-11-23T10:39:54.150Z,3.62
2018-11-23T10:42:24.664Z,3.66
2018-11-23T10:44:55.466Z,3.72
2018-11-23T10:47:26.130Z,3.76
2018-11-23T10:49:56.807Z,3.75
2018-11-23T10:52:27.423Z,3.77
2018-11-23T10:54:57.853Z,3.84
2018-11-23T10:57:28.305Z,3.69
2018-11-23T10:59:58.865Z,3.59
2018-11-23T11:02:34.411Z,3.54
2018-11-23T11:05:10.185Z,3.56
2018-11-23T11:07:44.450Z,3.56
2018-11-23T11:10:15.128Z,3.55
2018-11-23T11:12:45.720Z,3.44
2018-11-23T11:15:16.290Z,3.46
2018-11-23T11:17:46.717Z,3.50
2018-11-23T11:20:17.785Z,3.48
2018-11-23T11:22:48.379Z,3.48
2018-11-23T11:25:19.203Z,3.53
2018-11-23T11:27:49.838Z,3.52
2018-11-23T11:30:20.903Z,3.55
2018-11-23T11:32:51.637Z,3.58
2018-11-23T11:35:22.321Z,3.55
2018-11-23T11:37:53.043Z,3.55
2018-11-23T11:40:23.625Z,3.50
2018-11-23T11:42:54.061Z,3.53
2018-11-23T11:45:24.723Z,3.66
2018-11-23T11:47:55.275Z,3.72
2018-11-23T11:50:25.780Z,3.87
2018-11-23T11:52:56.507Z,3.87
2018-11-23T11:55:26.973Z,3.87
2018-11-23T11:57:57.352Z,3.88
2018-11-23T12:00:27.901Z,3.94
2018-11-23T12:02:58.233Z,3.94
2018-11-23T12:05:35.382Z,4.05
2018-11-23T12:08:06.376Z,4.07
2018-11-23T12:10:36.995Z,4.10
2018-11-23T12:13:07.590Z,4.01
2018-11-23T12:15:38.899Z,3.98
2018-11-23T12:18:09.638Z,4.00
2018-11-23T12:20:39.945Z,3.96
2018-11-23T12:23:14.779Z,3.98
2018-11-23T12:25:45.426Z,3.87
2018-11-23T12:28:16.064Z,3.90
2018-11-23T12:30:46.761Z,4.07
2018-11-23T12:33:17.214Z,4.08
2018-11-23T12:35:48.977Z,4.03
2018-11-23T12:38:19.369Z,4.10
2018-11-23T12:40:51.281Z,4.10
2018-11-23T12:43:21.780Z,4.11
2018-11-23T12:45:53.177Z,3.97
2018-11-23T12:48:26.196Z,3.86
2018-11-23T12:50:58.770Z,3.88
2018-11-23T12:53:29.585Z,3.98
2018-11-23T12:56:00.281Z,4.01
2018-11-23T12:58:30.877Z,3.97
2018-11-23T13:01:01.591Z,3.95
2018-11-23T13:03:32.353Z,4.07
2018-11-23T13:06:04.820Z,4.06
2018-11-23T13:08:35.329Z,3.92
2018-11-23T13:11:06.053Z,3.67
2018-11-23T13:13:38.011Z,3.60
2018-11-23T13:16:16.559Z,3.56
2018-11-23T13:18:47.258Z,3.66
2018-11-23T13:21:19.654Z,3.73
2018-11-23T13:23:52.996Z,3.70
2018-11-23T13:26:23.910Z,3.74
2018-11-23T13:28:54.428Z,3.81
2018-11-23T13:31:25.085Z,3.87
2018-11-23T13:33:56.063Z,3.88
2018-11-23T13:36:26.963Z,3.92
2018-11-23T13:38:57.599Z,3.84
2018-11-23T13:41:28.393Z,3.90
2018-11-23T13:44:08.313Z,3.88
2018-11-23T13:46:38.790Z,3.75
2018-11-23T13:49:09.246Z,3.72
2018-11-23T13:51:39.788Z,3.66
2018-11-23T13:54:10.351Z,3.61
2018-11-23T13:56:41.210Z,3.55
2018-11-23T13:59:11.718Z,3.45
2018-11-23T14:01:42.259Z,3.35
2018-11-23T14:04:12.751Z,3.32
2018-11-23T14:06:43.277Z,3.33
2018-11-23T14:09:13.752Z,3.41
2018-11-23T14:11:44.400Z,3.43
2018-11-23T14:14:15.003Z,3.44
2018-11-23T14:16:45.634Z,3.46
2018-11-23T14:19:16.430Z,3.52
2018-11-23T14:21:46.888Z,3.56
2018-11-23T14:24:22.216Z,3.54
2018-11-23T14:26:52.603Z,3.57
2018-11-23T14:29:23.105Z,3.58
2018-11-23T14:31:53.678Z,3.58
2018-11-23T14:34:24.330Z,3.58
2018-11-23T14:36:54.833Z,3.58
2018-11-23T14:39:25.448Z,3.55
2018-11-23T14:41:56.158Z,3.48
2018-11-23T14:44:26.605Z,3.46
2018-11-23T14:46:57.220Z,3.46
2018-11-23T14:49:28.026Z,3.44
2018-11-23T14:51:58.498Z,3.43
2018-11-23T14:54:29.190Z,3.45
2018-11-23T14:56:59.686Z,3.47
2018-11-23T14:59:30.424Z,3.43
2018-11-23T15:02:01.018Z,3.38
2018-11-23T15:04:31.479Z,3.41
2018-11-23T15:07:02.068Z,3.43
2018-11-23T15:09:32.801Z,3.40
2018-11-23T15:12:03.603Z,3.32
2018-11-23T15:14:34.190Z,3.30
2018-11-23T15:17:04.680Z,3.30
2018-11-23T15:19:35.816Z,3.28
2018-11-23T15:22:06.469Z,3.24
2018-11-23T15:24:43.173Z,3.08
2018-11-23T15:27:20.796Z,3.05
2018-11-23T15:29:51.363Z,3.04
2018-11-23T15:32:22.032Z,3.03
2018-11-23T15:34:52.623Z,3.06
2018-11-23T15:37:23.309Z,3.12
2018-11-23T15:39:55.316Z,3.10
2018-11-23T15:42:25.977Z,3.11
2018-11-23T15:44:56.375Z,3.15
2018-11-23T15:47:27.176Z,3.21
2018-11-23T15:49:57.786Z,3.23
2018-11-23T15:52:28.317Z,3.24
2018-11-23T15:55:04.388Z,3.21
2018-11-23T15:57:34.946Z,3.18
2018-11-23T16:00:08.031Z,3.21
2018-11-23T16:02:38.692Z,3.22
2018-11-23T16:05:10.647Z,3.26
2018-11-23T16:07:42.356Z,3.26
2018-11-23T16:10:16.169Z,3.25
2018-11-23T16:12:53.685Z,3.28
2018-11-23T16:15:25.539Z,3.29
2018-11-23T16:17:56.506Z,3.29
2018-11-23T16:20:29.389Z,3.28
2018-11-23T16:23:01.476Z,3.29
2018-11-23T16:25:32.131Z,3.27
2018-11-23T16:28:04.388Z,3.27
2018-11-23T16:30:37.103Z,3.29
2018-11-23T16:33:09.621Z,3.31
2018-11-23T16:35:41.064Z,3.34
2018-11-23T16:38:14.195Z,3.34
2018-11-23T16:40:46.829Z,3.35
2018-11-23T16:43:21.564Z,3.34
2018-11-23T16:45:52.347Z,3.33
2018-11-23T16:48:23.281Z,3.35
2018-11-23T16:50:53.987Z,3.31
2018-11-23T16:53:24.639Z,3.34
2018-11-23T16:55:55.466Z,3.29
2018-11-23T16:58:26.175Z,3.22
2018-11-23T17:00:57.006Z,3.14
2018-11-23T17:03:27.558Z,3.11
2018-11-23T17:05:58.157Z,3.02
2018-11-23T17:08:29.024Z,2.96
2018-11-23T17:10:59.673Z,2.93
2018-11-23T17:13:30.348Z,2.89
2018-11-23T17:16:01.030Z,2.86
2018-11-23T17:18:31.710Z,2.82
2018-11-23T17:21:02.552Z,2.81
2018-11-23T17:23:33.279Z,2.79
2018-11-23T17:26:04.080Z,2.77
2018-11-23T17:28:34.683Z,2.73
2018-11-23T17:31:05.445Z,2.71
2018-11-23T17:33:36.086Z,2.69
2018-11-23T17:36:07.204Z,2.66
2018-11-23T17:38:46.811Z,2.62
2018-11-23T17:41:08.542Z,2.58
2018-11-23T17:43:39.188Z,2.55
2018-11-23T17:46:09.724Z,2.54
2018-11-23T17:48:40.311Z,2.52
2018-11-23T17:51:13.627Z,2.49
2018-11-23T17:53:44.329Z,2.49
2018-11-23T17:56:14.928Z,2.47
2018-11-23T17:58:45.560Z,2.44
2018-11-23T18:01:16.285Z,2.41
2018-11-23T18:03:47.215Z,2.38
2018-11-23T18:06:17.761Z,2.39
2018-11-23T18:08:48.372Z,2.36
2018-11-23T18:11:22.425Z,2.33
2018-11-23T18:13:53.362Z,2.32
2018-11-23T18:16:24.151Z,2.30
2018-11-23T18:18:54.894Z,2.28
2018-11-23T18:21:25.653Z,2.28
2018-11-23T18:23:56.683Z,2.23
2018-11-23T18:26:29.225Z,2.18
2018-11-23T18:28:59.910Z,2.13
2018-11-23T18:31:30.746Z,2.11
2018-11-23T18:34:01.435Z,2.09
2018-11-23T18:36:32.177Z,2.10
2018-11-23T18:39:03.063Z,2.07
2018-11-23T18:41:33.681Z,2.06
2018-11-23T18:44:04.374Z,2.03
2018-11-23T18:46:35.105Z,2.03
2018-11-23T18:49:06.040Z,2.07
2018-11-23T18:51:36.582Z,2.05
2018-11-23T18:54:07.434Z,2.01
2018-11-23T18:56:38.196Z,2.00
2018-11-23T18:59:08.789Z,1.97
2018-11-23T19:01:39.466Z,1.93
2018-11-23T19:04:09.832Z,1.89
2018-11-23T19:06:40.626Z,1.88
2018-11-23T19:09:11.272Z,1.87
2018-11-23T19:11:41.993Z,1.84
2018-11-23T19:14:12.612Z,1.83
2018-11-23T19:16:43.325Z,1.80
2018-11-23T19:19:13.978Z,1.78
2018-11-23T19:21:44.855Z,1.79
2018-11-23T19:24:18.498Z,1.74
2018-11-23T19:26:56.756Z,1.71
2018-11-23T19:29:27.606Z,1.67
2018-11-23T19:31:57.781Z,1.61
2018-11-23T19:34:28.545Z,1.58
2018-11-23T19:36:58.718Z,1.52
2018-11-23T19:39:28.843Z,1.42
2018-11-23T19:41:58.987Z,1.33
2018-11-23T19:44:29.027Z,1.28
2018-11-23T19:46:59.203Z,1.20
2018-11-23T19:49:29.438Z,1.19
2018-11-23T19:51:59.571Z,1.18
2018-11-23T19:54:29.582Z,1.19
2018-11-23T19:56:59.605Z,1.23
2018-11-23T19:59:29.668Z,1.28
2018-11-23T20:02:00.068Z,1.28
2018-11-23T20:04:30.119Z,1.27
2018-11-23T20:07:00.820Z,1.24
2018-11-23T20:09:30.827Z,1.20
2018-11-23T20:12:01.234Z,1.17
2018-11-23T20:14:31.549Z,1.12
2018-11-23T20:17:01.970Z,1.12
2018-11-23T20:19:32.333Z,1.09
2018-11-23T20:22:02.471Z,1.04
2018-11-23T20:24:33.176Z,1.06
2018-11-23T20:27:04.069Z,1.03
2018-11-23T20:29:34.088Z,1.03
2018-11-23T20:32:04.252Z,1.06
2018-11-23T20:34:34.411Z,1.02
2018-11-23T20:37:04.559Z,1.02
2018-11-23T20:39:34.809Z,1.05
2018-11-23T20:42:05.291Z,1.09
2018-11-23T20:44:35.629Z,1.18
2018-11-23T20:47:06.039Z,1.23
2018-11-23T20:49:36.169Z,1.35
2018-11-23T20:52:06.449Z,1.44
2018-11-23T20:54:36.508Z,1.50
2018-11-23T20:57:06.559Z,1.58
2018-11-23T20:59:38.885Z,1.75
2018-11-23T21:02:06.886Z,1.86
2018-11-23T21:04:37.063Z,1.93
2018-11-23T21:07:07.245Z,1.99
2018-11-23T21:09:37.323Z,2.00
2018-11-23T21:12:07.451Z,2.01
2018-11-23T21:14:37.528Z,2.00
2018-11-23T21:17:07.627Z,2.00
2018-11-23T21:19:37.711Z,1.98
2018-11-23T21:22:07.951Z,1.98
2018-11-23T21:24:38.041Z,1.95
2018-11-23T21:27:08.116Z,1.93
2018-11-23T21:29:38.113Z,1.91
2018-11-23T21:32:10.481Z,1.91
2018-11-23T21:34:40.529Z,1.89
2018-11-23T21:37:10.847Z,1.85
2018-11-23T21:39:40.912Z,1.84
2018-11-23T21:42:10.946Z,1.83
2018-11-23T21:44:41.050Z,1.84
2018-11-23T21:47:11.063Z,1.86
2018-11-23T21:49:41.186Z,1.93
2018-11-23T21:52:11.490Z,1.97
2018-11-23T21:54:41.489Z,2.01
2018-11-23T21:57:11.557Z,2.02
2018-11-23T21:59:43.423Z,2.04
2018-11-23T22:02:13.541Z,2.02
2018-11-23T22:04:43.941Z,2.00
2018-11-23T22:07:14.041Z,1.99
2018-11-23T22:09:44.231Z,2.00
2018-11-23T22:12:14.531Z,1.99
2018-11-23T22:14:44.547Z,1.98
2018-11-23T22:17:14.659Z,1.96
2018-11-23T22:19:44.760Z,1.95
2018-11-23T22:22:15.807Z,1.94
2018-11-23T22:24:45.852Z,1.94
2018-11-23T22:27:18.264Z,1.93
2018-11-23T22:29:48.268Z,1.94
2018-11-23T22:32:18.319Z,1.94
2018-11-23T22:34:49.600Z,1.92
2018-11-23T22:37:20.813Z,1.92
2018-11-23T22:39:52.522Z,1.91
2018-11-23T22:42:22.660Z,1.93
2018-11-23T22:44:52.676Z,1.95
2018-11-23T22:47:22.942Z,1.95
2018-11-23T22:49:53.124Z,1.94
2018-11-23T22:52:23.599Z,1.94
2018-11-23T22:54:53.651Z,1.94
2018-11-23T22:57:23.707Z,1.96
2018-11-23T22:59:53.994Z,1.96
2018-11-23T23:02:24.068Z,1.90
2018-11-23T23:04:55.511Z,1.89
2018-11-23T23:07:26.369Z,1.87
2018-11-23T23:10:04.713Z,1.86
2018-11-23T23:12:34.720Z,1.86
2018-11-23T23:15:05.190Z,1.86
2018-11-23T23:17:36.700Z,1.85
2018-11-23T23:20:11.010Z,1.84
2018-11-23T23:22:41.044Z,1.84
2018-11-23T23:25:12.230Z,1.81
2018-11-23T23:27:42.960Z,1.79
2018-11-23T23:30:14.524Z,1.79
2018-11-23T23:32:45.700Z,1.79
2018-11-23T23:35:16.931Z,1.80
2018-11-23T23:37:49.234Z,1.85
2018-11-23T23:40:21.267Z,1.91
2018-11-23T23:42:51.367Z,1.95
2018-11-23T23:45:22.448Z,2.01
2018-11-23T23:47:52.507Z,2.04
2018-11-23T23:50:24.755Z,2.06
2018-11-23T23:52:56.662Z,2.07
2018-11-23T23:55:28.908Z,2.08
2018-11-23T23:58:01.498Z,2.09
